Time;durP1;ratioP1;P1;durP2;ratioP2;P2;SDS_P1;SDS_P2;PMS_P1;PMS_P2;Temp;Humidity;BMP_temperature;BMP_pressure;BME280_temperature;BME280_humidity;BME280_pressure;Samples;Min_cycle;Max_cycle;Signal;HPM_P1;HPM_P2
2022/07/19 00:00:19;;;;;;;10.55;7.00;;;21.60;96.70;;;;;;5072130;28;20117;-60
2022/07/19 00:02:45;;;;;;;11.10;7.15;;;21.60;96.70;;;;;;5072548;28;20059;-64
2022/07/19 00:05:11;;;;;;;12.93;7.80;;;21.60;96.70;;;;;;5072999;28;20049;-60
2022/07/19 00:07:38;;;;;;;11.95;7.47;;;21.50;97.00;;;;;;5072454;28;20098;-60
2022/07/19 00:10:06;;;;;;;10.65;7.43;;;21.50;97.10;;;;;;5067535;28;20060;-60
2022/07/19 00:12:33;;;;;;;11.25;7.25;;;21.50;97.20;;;;;;5055155;28;20109;-60
2022/07/19 00:14:58;;;;;;;12.00;7.15;;;21.40;97.10;;;;;;5072296;28;20052;-60
2022/07/19 00:17:24;;;;;;;13.20;7.47;;;21.40;97.50;;;;;;5072077;28;20048;-61
2022/07/19 00:19:50;;;;;;;10.70;7.05;;;21.40;97.80;;;;;;5069683;28;20075;-60
2022/07/19 00:22:15;;;;;;;11.30;7.00;;;21.40;97.70;;;;;;5072260;28;20058;-61
2022/07/19 00:24:41;;;;;;;10.75;7.45;;;21.30;97.70;;;;;;5072691;28;20040;-61
2022/07/19 00:27:07;;;;;;;9.98;6.75;;;21.30;97.80;;;;;;5071658;28;20141;-61
2022/07/19 00:29:33;;;;;;;11.23;7.65;;;21.30;98.00;;;;;;5072109;28;20067;-62
2022/07/19 00:31:58;;;;;;;14.02;7.45;;;21.30;97.90;;;;;;5069054;28;20041;-61
2022/07/19 00:34:24;;;;;;;10.98;7.00;;;21.30;98.00;;;;;;5071044;28;20048;-60
2022/07/19 00:36:50;;;;;;;11.05;7.13;;;21.20;98.00;;;;;;5072119;28;20044;-65
2022/07/19 00:39:16;;;;;;;12.77;7.50;;;21.20;98.00;;;;;;5071509;28;20048;-60
2022/07/19 00:41:42;;;;;;;10.35;6.80;;;21.20;98.20;;;;;;5070238;28;20047;-61
2022/07/19 00:44:10;;;;;;;9.98;6.82;;;21.20;98.30;;;;;;5056388;28;20056;-61
2022/07/19 00:46:36;;;;;;;10.23;6.90;;;21.30;98.20;;;;;;5051378;28;20437;-60
2022/07/19 00:49:03;;;;;;;12.38;6.97;;;21.20;98.30;;;;;;5066734;28;20079;-61
2022/07/19 00:51:30;;;;;;;11.98;6.53;;;21.20;98.40;;;;;;5050907;28;20082;-60
2022/07/19 00:53:57;;;;;;;9.63;6.85;;;21.10;98.30;;;;;;5059527;28;20410;-61
2022/07/19 00:56:26;;;;;;;13.73;6.65;;;21.10;98.40;;;;;;5071942;28;20052;-60
2022/07/19 00:58:53;;;;;;;11.70;6.50;;;21.10;98.60;;;;;;5071341;28;20497;-65
2022/07/19 01:01:19;;;;;;;11.13;6.53;;;21.10;98.70;;;;;;5068109;28;20048;-61
2022/07/19 01:03:47;;;;;;;10.23;6.82;;;21.00;98.50;;;;;;5070867;28;20057;-60
2022/07/19 01:06:12;;;;;;;10.77;6.68;;;21.00;98.90;;;;;;5071703;28;20409;-60
2022/07/19 01:08:38;;;;;;;12.50;6.75;;;21.00;99.00;;;;;;5072131;28;20049;-60
2022/07/19 01:11:05;;;;;;;10.23;7.03;;;20.90;99.10;;;;;;5068403;28;20139;-60
2022/07/19 01:13:32;;;;;;;9.55;6.85;;;20.90;99.20;;;;;;5072199;28;20097;-61
2022/07/19 01:15:59;;;;;;;8.77;6.40;;;20.90;99.30;;;;;;5071237;28;20109;-60
2022/07/19 01:18:25;;;;;;;9.45;6.57;;;20.80;99.30;;;;;;5071772;28;20048;-59
2022/07/19 01:20:51;;;;;;;9.00;6.50;;;20.80;99.60;;;;;;5068600;28;20090;-60
2022/07/19 01:23:17;;;;;;;7.65;6.22;;;20.80;99.80;;;;;;5070858;28;20071;-60
2022/07/19 01:25:43;;;;;;;7.95;5.85;;;20.80;99.80;;;;;;5071580;28;20083;-60
2022/07/19 01:28:09;;;;;;;9.23;6.28;;;20.70;99.90;;;;;;5071146;28;20040;-60
2022/07/19 01:30:35;;;;;;;10.23;6.68;;;20.70;99.90;;;;;;5039825;28;20514;-60
2022/07/19 01:33:01;;;;;;;11.55;6.28;;;20.70;99.90;;;;;;5059293;28;20490;-60
2022/07/19 01:35:28;;;;;;;8.00;5.88;;;20.60;99.90;;;;;;5060926;28;20059;-60
2022/07/19 01:37:55;;;;;;;10.05;6.68;;;20.60;99.90;;;;;;5070196;28;20406;-60
2022/07/19 01:40:21;;;;;;;11.07;6.60;;;20.60;99.90;;;;;;5071015;28;20117;-60
2022/07/19 01:42:48;;;;;;;11.20;6.55;;;20.60;99.90;;;;;;5057767;28;20049;-60
2022/07/19 01:45:14;;;;;;;10.60;6.53;;;20.60;99.90;;;;;;5051022;28;20060;-60
2022/07/19 01:47:41;;;;;;;9.73;6.78;;;20.50;99.90;;;;;;5051106;28;20056;-61
2022/07/19 01:50:09;;;;;;;8.75;5.88;;;20.50;99.90;;;;;;5049582;28;20061;-60
2022/07/19 01:52:35;;;;;;;11.43;7.45;;;20.40;99.90;;;;;;5052965;28;20106;-60
2022/07/19 01:55:01;;;;;;;10.43;6.38;;;20.50;99.90;;;;;;5053036;28;20168;-60
2022/07/19 01:57:28;;;;;;;11.32;6.50;;;20.50;99.90;;;;;;5054735;28;20044;-60
2022/07/19 01:59:54;;;;;;;10.25;6.53;;;20.50;99.90;;;;;;5053345;28;20239;-60
2022/07/19 02:02:20;;;;;;;9.10;6.40;;;20.40;99.90;;;;;;5051121;28;20045;-60
2022/07/19 02:04:45;;;;;;;9.93;6.30;;;20.40;99.90;;;;;;5054826;28;20060;-60
2022/07/19 02:07:11;;;;;;;9.15;6.07;;;20.40;99.90;;;;;;5052595;28;20571;-60
2022/07/19 02:09:37;;;;;;;9.57;6.00;;;20.30;99.90;;;;;;5050891;28;20371;-60
2022/07/19 02:12:03;;;;;;;11.75;6.22;;;20.30;99.90;;;;;;5049001;28;20401;-65
2022/07/19 02:14:28;;;;;;;10.18;6.70;;;20.30;99.90;;;;;;5059422;28;20036;-60
2022/07/19 02:16:54;;;;;;;10.05;6.30;;;20.30;99.90;;;;;;5053472;28;20041;-61
2022/07/19 02:19:21;;;;;;;10.90;7.00;;;20.20;99.90;;;;;;5057397;28;20041;-60
2022/07/19 02:21:47;;;;;;;9.98;7.07;;;20.20;99.90;;;;;;5050843;28;20049;-60
2022/07/19 02:24:12;;;;;;;11.27;6.43;;;20.20;99.90;;;;;;5053169;28;20109;-61
2022/07/19 02:26:39;;;;;;;11.73;7.28;;;20.20;99.90;;;;;;5057143;28;20044;-61
2022/07/19 02:29:05;;;;;;;11.93;7.68;;;20.20;99.90;;;;;;5056450;28;20048;-60
2022/07/19 02:31:31;;;;;;;10.77;7.03;;;20.20;99.90;;;;;;5050944;28;20037;-60
2022/07/19 02:33:57;;;;;;;12.25;6.75;;;20.20;99.90;;;;;;5049385;28;20080;-61
2022/07/19 02:36:22;;;;;;;9.77;6.68;;;20.20;99.90;;;;;;5052376;28;20283;-61
2022/07/19 02:38:48;;;;;;;10.95;7.13;;;20.20;99.90;;;;;;5054455;28;20040;-61
2022/07/19 02:41:14;;;;;;;12.05;7.18;;;20.20;99.90;;;;;;5064194;28;20438;-61
2022/07/19 02:43:40;;;;;;;11.32;7.00;;;20.10;99.90;;;;;;5049471;28;20045;-62
2022/07/19 02:46:06;;;;;;;10.30;6.95;;;20.10;99.90;;;;;;5055997;28;20060;-62
2022/07/19 02:48:32;;;;;;;10.77;6.75;;;20.10;99.90;;;;;;5050309;28;20401;-61
2022/07/19 02:50:59;;;;;;;9.10;6.57;;;20.10;99.90;;;;;;5059688;28;20045;-61
2022/07/19 02:53:24;;;;;;;11.63;7.32;;;20.10;99.90;;;;;;5065818;28;20048;-61
2022/07/19 02:55:50;;;;;;;9.88;6.65;;;20.00;99.90;;;;;;5063481;28;20065;-61
2022/07/19 02:58:16;;;;;;;11.23;7.45;;;20.00;99.90;;;;;;5064683;28;20068;-61
2022/07/19 03:00:42;;;;;;;9.15;6.95;;;20.00;99.90;;;;;;5064637;28;20084;-62
2022/07/19 03:05:53;;;;;;;13.65;7.25;;;20.00;99.90;;;;;;5058916;28;20049;-60
2022/07/19 03:08:18;;;;;;;16.08;7.20;;;20.00;99.90;;;;;;5068376;28;20048;-61
2022/07/19 03:10:44;;;;;;;10.90;7.78;;;20.00;99.90;;;;;;5069706;28;20052;-61
2022/07/19 03:13:10;;;;;;;12.48;7.55;;;19.90;99.90;;;;;;5068827;28;20044;-61
2022/07/19 03:15:36;;;;;;;12.30;7.40;;;19.90;99.90;;;;;;5052552;28;20049;-60
2022/07/19 03:18:03;;;;;;;11.48;6.97;;;19.90;99.90;;;;;;5064439;28;20084;-61
2022/07/19 03:20:29;;;;;;;16.73;7.60;;;19.90;99.90;;;;;;5053142;28;20073;-60
2022/07/19 03:22:55;;;;;;;9.88;7.05;;;19.90;99.90;;;;;;5085905;28;20087;-60
2022/07/19 03:25:21;;;;;;;9.40;7.40;;;19.80;99.90;;;;;;5068643;28;20032;-61
2022/07/19 03:27:48;;;;;;;9.45;7.10;;;19.80;99.90;;;;;;5046335;28;20100;-61
2022/07/19 03:30:13;;;;;;;11.05;7.75;;;19.90;99.90;;;;;;5070227;28;20076;-60
2022/07/19 03:32:39;;;;;;;9.35;6.63;;;19.90;99.90;;;;;;5073238;28;20079;-63
2022/07/19 03:35:05;;;;;;;12.52;7.35;;;19.80;99.90;;;;;;5073686;28;20087;-62
2022/07/19 03:37:31;;;;;;;11.70;7.40;;;19.80;99.90;;;;;;5070501;28;20070;-61
2022/07/19 03:39:57;;;;;;;10.00;6.75;;;19.80;99.90;;;;;;5072360;28;20465;-60
2022/07/19 03:42:22;;;;;;;10.00;7.40;;;19.80;99.90;;;;;;5071492;28;20422;-60
2022/07/19 03:44:48;;;;;;;11.77;7.00;;;19.80;99.90;;;;;;5072476;28;20155;-61
2022/07/19 03:47:14;;;;;;;11.50;7.32;;;19.70;99.90;;;;;;5073122;28;20123;-61
2022/07/19 03:49:39;;;;;;;9.77;7.10;;;19.70;99.90;;;;;;5071236;28;20084;-61
2022/07/19 03:52:05;;;;;;;11.95;7.78;;;19.70;99.90;;;;;;5072791;28;20080;-61
2022/07/19 03:54:31;;;;;;;8.43;6.55;;;19.70;99.90;;;;;;5067427;28;20406;-61
2022/07/19 03:56:56;;;;;;;13.25;7.28;;;19.70;99.90;;;;;;5065200;28;20504;-61
2022/07/19 03:59:22;;;;;;;11.50;7.35;;;19.70;99.90;;;;;;5070621;28;20097;-61
2022/07/19 04:01:49;;;;;;;10.32;7.13;;;19.60;99.90;;;;;;5072419;28;20036;-60
2022/07/19 04:04:15;;;;;;;11.02;6.53;;;19.60;99.90;;;;;;5072497;28;20060;-61
2022/07/19 04:06:41;;;;;;;12.10;6.75;;;19.60;99.90;;;;;;5073628;28;20377;-60
2022/07/19 04:09:07;;;;;;;13.18;7.20;;;19.70;99.90;;;;;;5068729;28;20472;-61
2022/07/19 04:11:33;;;;;;;9.90;6.97;;;19.70;99.90;;;;;;5066569;28;20045;-61
2022/07/19 04:13:58;;;;;;;10.45;7.57;;;19.70;99.90;;;;;;5071759;28;20126;-60
2022/07/19 04:16:24;;;;;;;11.77;7.47;;;19.70;99.90;;;;;;5059892;28;20167;-61
2022/07/19 04:18:49;;;;;;;12.20;7.30;;;19.70;99.90;;;;;;5072960;28;20047;-61
2022/07/19 04:21:15;;;;;;;11.85;6.80;;;19.70;99.90;;;;;;5067785;28;20040;-61
2022/07/19 04:23:41;;;;;;;10.68;7.40;;;19.70;99.90;;;;;;5072688;28;20094;-60
2022/07/19 04:26:07;;;;;;;12.15;6.72;;;19.80;99.90;;;;;;5073020;28;20474;-60
2022/07/19 04:28:32;;;;;;;11.57;7.47;;;19.80;99.90;;;;;;5072323;28;20381;-60
2022/07/19 04:30:58;;;;;;;12.38;7.35;;;19.80;99.90;;;;;;5070770;28;20045;-62
2022/07/19 04:33:24;;;;;;;10.15;6.82;;;19.90;99.90;;;;;;5071212;28;20045;-60
2022/07/19 04:35:50;;;;;;;11.75;7.32;;;19.90;99.90;;;;;;5072338;28;20045;-60
2022/07/19 04:38:15;;;;;;;9.38;6.82;;;19.90;99.90;;;;;;5054034;28;20097;-60
2022/07/19 04:40:41;;;;;;;12.48;7.30;;;20.00;99.90;;;;;;5069196;28;20052;-60
2022/07/19 04:43:07;;;;;;;9.10;6.78;;;20.10;99.90;;;;;;5070220;28;20044;-62
2022/07/19 04:45:32;;;;;;;11.88;7.63;;;20.20;99.90;;;;;;5037306;28;20072;-60
2022/07/19 04:47:58;;;;;;;13.38;8.05;;;20.30;99.90;;;;;;5070883;28;20127;-60
2022/07/19 04:50:24;;;;;;;12.38;7.03;;;20.30;99.90;;;;;;5072012;28;20057;-61
2022/07/19 04:52:49;;;;;;;10.18;7.00;;;20.40;99.90;;;;;;5062102;28;20063;-61
2022/07/19 04:55:15;;;;;;;9.02;6.60;;;20.70;99.90;;;;;;5067934;28;20052;-61
2022/07/19 04:57:41;;;;;;;12.13;7.63;;;21.10;99.90;;;;;;5070370;28;20059;-61
2022/07/19 05:00:10;;;;;;;11.07;6.80;;;21.60;99.80;;;;;;5072314;28;20051;-61
2022/07/19 05:02:37;;;;;;;14.07;6.63;;;22.10;98.90;;;;;;5060375;28;20061;-61
2022/07/19 05:05:04;;;;;;;10.38;6.60;;;22.60;98.60;;;;;;5071541;28;20056;-61
2022/07/19 05:07:30;;;;;;;12.48;6.70;;;23.10;97.90;;;;;;5071928;28;20475;-60
2022/07/19 05:09:56;;;;;;;12.32;6.28;;;23.40;96.70;;;;;;5072030;28;20339;-61
2022/07/19 05:12:22;;;;;;;11.20;7.05;;;23.80;96.20;;;;;;5063569;28;20045;-61
2022/07/19 05:14:48;;;;;;;15.52;6.43;;;24.20;95.60;;;;;;5070012;28;20048;-60
2022/07/19 05:17:14;;;;;;;12.05;7.43;;;24.60;95.40;;;;;;5071951;28;20075;-61
2022/07/19 05:19:40;;;;;;;9.52;5.95;;;25.00;94.10;;;;;;5071286;28;20052;-61
2022/07/19 05:22:06;;;;;;;15.40;6.97;;;25.20;93.70;;;;;;5069081;28;20063;-62
2022/07/19 05:24:32;;;;;;;9.95;6.53;;;25.50;94.40;;;;;;5064720;28;20048;-61
2022/07/19 05:26:57;;;;;;;9.52;6.43;;;25.80;94.10;;;;;;5071339;28;20048;-61
2022/07/19 05:29:23;;;;;;;16.88;6.50;;;26.20;92.00;;;;;;5071605;28;20047;-62
2022/07/19 05:31:49;;;;;;;13.32;6.38;;;26.60;93.00;;;;;;5069448;28;20106;-62
2022/07/19 05:34:15;;;;;;;9.43;5.90;;;27.10;90.60;;;;;;5060370;28;20099;-61
2022/07/19 05:36:41;;;;;;;10.02;5.53;;;27.40;91.50;;;;;;5054516;28;20440;-61
2022/07/19 05:39:07;;;;;;;12.52;6.30;;;27.60;90.40;;;;;;5056077;28;20037;-61
2022/07/19 05:41:33;;;;;;;13.25;6.20;;;27.90;90.00;;;;;;5054857;28;20371;-62
2022/07/19 05:43:58;;;;;;;10.73;5.72;;;28.30;89.30;;;;;;5052420;28;20069;-63
2022/07/19 05:46:24;;;;;;;9.10;5.72;;;28.50;88.20;;;;;;5056871;28;20540;-62
2022/07/19 05:48:50;;;;;;;8.70;5.20;;;28.70;87.40;;;;;;5067469;28;20379;-63
2022/07/19 05:51:16;;;;;;;8.48;5.40;;;29.00;89.70;;;;;;5065305;28;20412;-61
2022/07/19 05:53:42;;;;;;;10.80;5.25;;;29.40;87.50;;;;;;5055144;28;20052;-62
2022/07/19 05:56:08;;;;;;;14.00;5.75;;;29.60;84.30;;;;;;5053659;28;20040;-61
2022/07/19 05:58:34;;;;;;;12.45;5.93;;;29.60;84.30;;;;;;5062246;28;20249;-61
2022/07/19 06:01:18;;;;;;;10.63;5.43;;;29.90;86.00;;;;;;5059408;28;20557;-61
2022/07/19 06:03:51;;;;;;;11.75;5.78;;;30.10;86.10;;;;;;5067516;28;20083;-62
2022/07/19 06:06:18;;;;;;;8.88;5.50;;;30.20;83.30;;;;;;5064549;28;20071;-62
2022/07/19 06:08:45;;;;;;;10.52;5.25;;;30.40;84.80;;;;;;5069860;28;20098;-62
2022/07/19 06:11:11;;;;;;;11.13;6.07;;;30.60;83.50;;;;;;5070697;28;20402;-62
2022/07/19 06:13:37;;;;;;;12.88;5.50;;;30.90;81.90;;;;;;5070506;28;20048;-62
2022/07/19 06:16:04;;;;;;;13.18;5.90;;;31.10;83.50;;;;;;5069291;28;20120;-62
2022/07/19 06:18:34;;;;;;;18.42;5.60;;;31.30;80.10;;;;;;5069470;28;20032;-62
2022/07/19 06:21:01;;;;;;;9.32;5.43;;;31.40;81.40;;;;;;5071227;28;20413;-63
2022/07/19 06:23:27;;;;;;;12.07;5.68;;;31.50;80.60;;;;;;5070807;28;20045;-62
2022/07/19 06:25:52;;;;;;;11.35;5.53;;;31.60;79.60;;;;;;5066208;28;20505;-61
2022/07/19 06:28:18;;;;;;;10.32;5.60;;;31.80;78.90;;;;;;5068630;28;20037;-62
2022/07/19 06:30:44;;;;;;;9.32;5.47;;;32.00;78.50;;;;;;5062272;28;20098;-61
2022/07/19 06:33:10;;;;;;;10.80;5.22;;;32.40;77.50;;;;;;5050771;28;20068;-62
2022/07/19 06:35:35;;;;;;;9.07;5.30;;;32.50;78.10;;;;;;5052254;28;20044;-62
2022/07/19 06:38:01;;;;;;;10.70;4.80;;;32.70;75.80;;;;;;5052702;28;20041;-61
2022/07/19 06:40:27;;;;;;;11.55;5.38;;;32.90;78.00;;;;;;5061715;28;20052;-62
2022/07/19 06:42:53;;;;;;;11.45;4.93;;;33.20;75.90;;;;;;5061155;28;20041;-61
2022/07/19 06:45:19;;;;;;;9.95;4.75;;;33.30;75.40;;;;;;5058973;28;20044;-61
2022/07/19 06:47:46;;;;;;;9.55;5.07;;;33.50;75.40;;;;;;5050919;28;20092;-60
2022/07/19 06:50:11;;;;;;;7.88;4.70;;;33.30;75.40;;;;;;5065640;28;20095;-60
2022/07/19 06:52:37;;;;;;;10.45;5.03;;;33.40;75.20;;;;;;5062364;28;20174;-62
2022/07/19 06:55:04;;;;;;;11.63;4.97;;;33.60;75.90;;;;;;5069888;28;20052;-60
2022/07/19 06:57:29;;;;;;;8.75;4.88;;;33.90;74.70;;;;;;5055382;28;20090;-61
2022/07/19 06:59:55;;;;;;;10.65;5.10;;;34.10;76.00;;;;;;5067874;28;20147;-61
2022/07/19 07:02:21;;;;;;;9.05;4.50;;;34.40;76.00;;;;;;5073962;28;20114;-63
2022/07/19 07:04:46;;;;;;;8.00;4.68;;;34.70;74.20;;;;;;5073481;28;20369;-61
2022/07/19 07:07:13;;;;;;;8.68;5.07;;;34.80;74.60;;;;;;5069463;28;20053;-62
2022/07/19 07:09:38;;;;;;;9.98;4.70;;;35.00;72.60;;;;;;5068966;28;20033;-63
2022/07/19 07:12:04;;;;;;;7.40;4.55;;;35.10;73.40;;;;;;5065556;28;20052;-62
2022/07/19 07:14:30;;;;;;;8.00;4.90;;;35.00;73.00;;;;;;5057616;28;20041;-61
2022/07/19 07:16:55;;;;;;;8.93;4.80;;;35.10;72.50;;;;;;5053814;28;20045;-61
2022/07/19 07:19:21;;;;;;;10.75;4.65;;;35.10;72.50;;;;;;5066119;28;20037;-61
2022/07/19 07:21:48;;;;;;;7.00;4.47;;;35.00;72.90;;;;;;5066629;28;20044;-61
2022/07/19 07:24:14;;;;;;;9.57;4.93;;;35.30;73.30;;;;;;5045012;28;20056;-61
2022/07/19 07:26:40;;;;;;;15.18;4.75;;;35.60;73.10;;;;;;5053021;28;20053;-62
2022/07/19 07:29:06;;;;;;;8.60;4.30;;;35.50;72.40;;;;;;5057490;28;20041;-62
2022/07/19 07:31:31;;;;;;;6.75;4.25;;;35.60;73.00;;;;;;5054322;28;20048;-62
2022/07/19 07:33:57;;;;;;;8.10;3.97;;;35.90;73.20;;;;;;5053697;28;20076;-62
2022/07/19 07:36:23;;;;;;;6.88;4.28;;;36.20;73.20;;;;;;5054142;28;20056;-62
2022/07/19 07:38:48;;;;;;;8.70;4.20;;;36.30;73.00;;;;;;5058587;28;20036;-63
2022/07/19 07:41:14;;;;;;;7.15;4.22;;;36.70;72.90;;;;;;5067002;28;20094;-62
2022/07/19 07:43:40;;;;;;;8.15;3.88;;;36.80;72.30;;;;;;5061502;28;20053;-61
2022/07/19 07:46:05;;;;;;;6.90;3.85;;;36.90;72.80;;;;;;5061066;28;20055;-60
2022/07/19 07:48:31;;;;;;;10.20;4.20;;;37.00;72.60;;;;;;5066752;28;20048;-61
2022/07/19 07:50:57;;;;;;;7.40;4.22;;;37.20;71.70;;;;;;5066681;28;20397;-61
2022/07/19 07:53:23;;;;;;;8.23;4.28;;;37.30;71.90;;;;;;5066480;28;20075;-61
2022/07/19 07:55:48;;;;;;;7.63;4.07;;;37.30;71.80;;;;;;5065639;28;20133;-60
2022/07/19 07:58:14;;;;;;;8.25;4.07;;;37.50;72.60;;;;;;5073580;28;20048;-61
2022/07/19 08:00:40;;;;;;;8.25;3.75;;;37.40;72.60;;;;;;5062594;28;20450;-61
2022/07/19 08:03:06;;;;;;;5.95;3.70;;;37.50;72.00;;;;;;5073308;28;20112;-62
2022/07/19 08:05:33;;;;;;;10.55;4.30;;;37.80;71.60;;;;;;5069865;28;20083;-61
2022/07/19 08:08:00;;;;;;;9.20;4.03;;;37.80;71.20;;;;;;5071153;28;20116;-60
2022/07/19 08:10:31;;;;;;;10.40;3.95;;;38.00;71.10;;;;;;5071822;28;20249;-61
2022/07/19 08:12:56;;;;;;;7.13;3.53;;;38.10;71.70;;;;;;5064440;28;20043;-61
2022/07/19 08:15:22;;;;;;;5.47;3.60;;;38.20;70.70;;;;;;5065971;28;20040;-64
2022/07/19 08:17:48;;;;;;;6.13;3.38;;;38.40;70.50;;;;;;5060562;28;20049;-68
2022/07/19 08:20:13;;;;;;;7.30;3.50;;;38.20;71.10;;;;;;5061392;28;20120;-61
2022/07/19 08:22:39;;;;;;;9.07;3.58;;;38.40;70.50;;;;;;5084316;28;20048;-62
2022/07/19 08:25:06;;;;;;;6.90;3.70;;;38.80;69.50;;;;;;5071777;28;20500;-62
2022/07/19 08:27:33;;;;;;;10.63;3.30;;;38.90;69.60;;;;;;5057590;28;20080;-64
2022/07/19 08:29:59;;;;;;;7.20;3.50;;;39.00;68.70;;;;;;5072182;28;20137;-63
2022/07/19 08:32:25;;;;;;;6.32;3.17;;;;;;;;;;5070678;28;20052;-61
2022/07/19 08:34:51;;;;;;;7.53;3.10;;;;;;;;;;5064489;28;20089;-68
2022/07/19 08:37:17;;;;;;;8.35;3.10;;;;;;;;;;5066624;28;20044;-63
2022/07/19 08:39:43;;;;;;;7.45;3.50;;;39.10;69.70;;;;;;5035613;28;20067;-63
2022/07/19 08:42:09;;;;;;;6.78;3.05;;;39.90;68.70;;;;;;5056746;28;20045;-63
2022/07/19 08:44:38;;;;;;;5.78;3.10;;;40.00;68.60;;;;;;5055542;28;20397;-64
2022/07/19 08:47:05;;;;;;;8.20;2.95;;;40.10;68.50;;;;;;5056815;28;20048;-64
2022/07/19 08:49:31;;;;;;;9.85;3.25;;;40.20;68.00;;;;;;5072032;28;20043;-63
2022/07/19 08:51:58;;;;;;;9.45;3.22;;;40.40;66.90;;;;;;5070099;28;20057;-64
2022/07/19 08:54:24;;;;;;;9.57;3.17;;;40.70;66.30;;;;;;5082772;28;20044;-64
2022/07/19 08:59:34;;;;;;;6.82;3.17;;;40.70;67.00;;;;;;5069828;28;20048;-64
2022/07/19 09:02:00;;;;;;;5.57;2.78;;;40.50;67.00;;;;;;5071807;28;20098;-64
2022/07/19 09:04:28;;;;;;;10.35;3.10;;;40.40;67.10;;;;;;5069596;28;20067;-64
2022/07/19 09:06:58;;;;;;;8.23;2.72;;;40.20;66.80;;;;;;5065764;28;20056;-71
2022/07/19 09:09:29;;;;;;;6.55;2.55;;;40.20;66.20;;;;;;5063567;28;20036;-65
2022/07/19 09:11:57;;;;;;;8.77;2.43;;;39.90;66.50;;;;;;5059012;28;20414;-70
2022/07/19 09:14:26;;;;;;;5.35;2.60;;;40.00;65.50;;;;;;5065226;28;20545;-64
2022/07/19 09:17:02;;;;;;;5.68;2.70;;;39.90;65.10;;;;;;5068115;28;20051;-64
2022/07/19 09:19:31;;;;;;;7.93;3.15;;;40.00;65.30;;;;;;5063829;28;20044;-64
2022/07/19 09:22:11;;;;;;;6.40;2.63;;;39.80;65.90;;;;;;5071215;28;20052;-65
2022/07/19 09:24:40;;;;;;;6.45;3.08;;;39.80;65.70;;;;;;5068878;28;20593;-64
2022/07/19 09:27:11;;;;;;;7.55;2.80;;;40.00;66.00;;;;;;5059783;28;20051;-64
2022/07/19 09:29:51;;;;;;;8.43;2.83;;;39.80;65.40;;;;;;5051173;28;20041;-64
2022/07/19 09:32:19;;;;;;;7.15;3.05;;;39.60;65.30;;;;;;5051194;28;20053;-64
2022/07/19 09:34:57;;;;;;;4.50;2.40;;;39.60;65.70;;;;;;5072294;28;20056;-63
2022/07/19 09:37:28;;;;;;;6.40;2.60;;;39.60;65.40;;;;;;5058699;28;20044;-63
2022/07/19 09:40:06;;;;;;;7.03;2.80;;;39.50;66.00;;;;;;5064939;28;20045;-62
2022/07/19 09:42:44;;;;;;;8.38;3.00;;;39.60;66.20;;;;;;5066885;28;20060;-63
2022/07/19 09:45:13;;;;;;;7.43;2.53;;;39.70;65.60;;;;;;5060280;28;20049;-63
2022/07/19 09:47:41;;;;;;;7.68;2.65;;;39.70;65.20;;;;;;5069048;28;20424;-62
2022/07/19 09:50:14;;;;;;;6.55;2.47;;;39.70;65.30;;;;;;5065789;28;20406;-63
2022/07/19 09:52:40;;;;;;;7.13;2.75;;;39.80;65.30;;;;;;5065614;28;20063;-65
2022/07/19 09:55:08;;;;;;;6.78;2.40;;;39.50;65.10;;;;;;5056661;28;20444;-63
2022/07/19 09:57:44;;;;;;;6.30;2.53;;;39.60;65.50;;;;;;5067953;28;20037;-63
2022/07/19 10:00:11;;;;;;;5.22;2.60;;;39.50;65.00;;;;;;5068897;28;20071;-62
2022/07/19 10:02:43;;;;;;;4.57;2.58;;;39.00;64.70;;;;;;5068152;28;20044;-63
2022/07/19 10:05:10;;;;;;;;;;;38.60;65.40;;;;;;5067060;28;20055;-63
2022/07/19 10:07:37;;;;;;;5.03;2.40;;;38.20;65.00;;;;;;5066603;28;19920;-62
2022/07/19 10:10:10;;;;;;;6.45;2.33;;;38.00;65.60;;;;;;5064506;28;20056;-67
2022/07/19 10:12:38;;;;;;;7.75;2.78;;;37.70;65.80;;;;;;5069826;28;20049;-63
2022/07/19 10:15:07;;;;;;;6.10;2.30;;;37.60;65.80;;;;;;5061698;28;20047;-68
2022/07/19 10:17:38;;;;;;;4.38;2.17;;;37.50;65.30;;;;;;5045670;28;20203;-63
2022/07/19 10:20:06;;;;;;;4.90;2.50;;;37.10;65.80;;;;;;5064806;28;20051;-67
2022/07/19 10:22:33;;;;;;;4.32;2.42;;;37.10;66.30;;;;;;5056505;28;20033;-62
2022/07/19 10:25:04;;;;;;;4.43;2.38;;;37.00;65.90;;;;;;5050621;28;20048;-63
2022/07/19 10:27:33;;;;;;;7.27;2.77;;;36.70;66.60;;;;;;5052801;28;20139;-63
2022/07/19 10:29:59;;;;;;;9.05;2.47;;;36.70;66.90;;;;;;5052821;28;20083;-62
2022/07/19 10:32:29;;;;;;;5.65;2.63;;;36.60;66.60;;;;;;5036197;28;20149;-62
2022/07/19 10:35:16;;;;;;;6.53;2.60;;;36.40;67.50;;;;;;5051487;28;20087;-62
2022/07/19 10:37:44;;;;;;;7.03;2.63;;;36.50;67.30;;;;;;5052520;28;20056;-62
2022/07/19 10:40:10;;;;;;;5.63;2.50;;;36.60;68.20;;;;;;5048668;28;20072;-62
2022/07/19 10:42:35;;;;;;;10.15;2.65;;;36.60;66.80;;;;;;5066823;28;20076;-64
2022/07/19 10:45:04;;;;;;;4.38;2.30;;;36.50;66.90;;;;;;5049346;28;20052;-62
2022/07/19 10:47:38;;;;;;;4.40;2.50;;;36.40;67.30;;;;;;5049217;28;20133;-62
2022/07/19 10:50:06;;;;;;;4.20;2.25;;;36.50;67.30;;;;;;5050205;28;20041;-62
2022/07/19 10:52:37;;;;;;;6.43;2.50;;;36.50;67.10;;;;;;5049439;28;20049;-62
2022/07/19 10:55:19;;;;;;;4.22;2.40;;;36.50;66.80;;;;;;5050570;28;20045;-62
2022/07/19 10:57:48;;;;;;;5.03;2.35;;;36.70;66.60;;;;;;5068759;28;20124;-63
2022/07/19 11:00:18;;;;;;;6.22;2.40;;;36.70;66.00;;;;;;5068756;28;20053;-62
2022/07/19 11:02:45;;;;;;;6.68;2.45;;;36.60;66.00;;;;;;5070205;28;20053;-63
2022/07/19 11:05:20;;;;;;;8.32;2.63;;;36.50;66.30;;;;;;5068259;28;20129;-62
2022/07/19 11:07:53;;;;;;;5.78;2.17;;;36.40;66.40;;;;;;5069563;28;20515;-62
2022/07/19 11:10:27;;;;;;;6.10;2.22;;;36.30;66.40;;;;;;5069660;28;20049;-63
2022/07/19 11:12:54;;;;;;;5.43;2.28;;;36.40;65.30;;;;;;5070477;28;20055;-63
2022/07/19 11:15:20;;;;;;;6.30;2.13;;;36.40;65.30;;;;;;5067174;28;20044;-63
2022/07/19 11:18:04;;;;;;;3.45;2.20;;;36.30;65.50;;;;;;5061256;28;20404;-65
2022/07/19 11:20:36;;;;;;;6.00;2.55;;;36.20;65.80;;;;;;5050008;28;20045;-62
2022/07/19 11:23:06;;;;;;;4.75;2.20;;;36.20;65.90;;;;;;5042128;28;20056;-61
2022/07/19 11:25:35;;;;;;;4.85;2.30;;;36.30;66.00;;;;;;5053203;28;20049;-62
2022/07/19 11:28:02;;;;;;;4.93;2.25;;;36.30;65.80;;;;;;5055903;28;20067;-62
2022/07/19 11:30:31;;;;;;;7.75;2.55;;;36.40;65.40;;;;;;5049580;28;20041;-62
2022/07/19 11:33:05;;;;;;;6.18;2.15;;;36.30;65.10;;;;;;5049926;28;20037;-61
2022/07/19 11:35:31;;;;;;;5.75;2.10;;;36.30;65.00;;;;;;5053658;28;20147;-63
2022/07/19 11:37:59;;;;;;;6.05;2.33;;;36.20;65.20;;;;;;5052037;28;20041;-62
2022/07/19 11:40:32;;;;;;;5.43;2.10;;;36.20;65.40;;;;;;5054037;28;20037;-63
2022/07/19 11:42:57;;;;;;;5.38;2.30;;;36.10;65.50;;;;;;5049999;28;20398;-62
2022/07/19 11:45:25;;;;;;;5.20;2.47;;;36.10;64.80;;;;;;5050441;28;20036;-62
2022/07/19 11:47:53;;;;;;;4.35;2.00;;;36.10;64.80;;;;;;5056013;28;20494;-62
2022/07/19 11:50:22;;;;;;;5.47;2.10;;;36.10;64.90;;;;;;5061124;28;20037;-63
2022/07/19 11:52:58;;;;;;;5.93;2.20;;;36.20;64.70;;;;;;5058901;28;20049;-62
2022/07/19 11:55:33;;;;;;;5.22;2.25;;;36.10;65.00;;;;;;5052048;28;20513;-62
2022/07/19 11:57:59;;;;;;;5.60;2.10;;;36.10;64.70;;;;;;5061654;28;20131;-62
2022/07/19 12:00:25;;;;;;;7.30;2.50;;;36.00;65.20;;;;;;5072720;28;20123;-61
2022/07/19 12:03:03;;;;;;;6.68;2.20;;;36.00;64.80;;;;;;5073178;28;20397;-62
2022/07/19 12:05:32;;;;;;;4.78;2.28;;;36.10;64.90;;;;;;5072431;28;20084;-63
2022/07/19 12:08:00;;;;;;;5.18;1.90;;;36.20;64.80;;;;;;5064397;28;20098;-62
2022/07/19 12:10:35;;;;;;;8.15;2.20;;;36.20;64.50;;;;;;5054156;28;20084;-61
2022/07/19 12:13:02;;;;;;;5.85;2.10;;;36.10;64.60;;;;;;5056820;28;20197;-62
2022/07/19 12:15:51;;;;;;;4.68;2.35;;;36.10;64.60;;;;;;5037525;28;20131;-62
2022/07/19 12:18:22;;;;;;;4.18;2.17;;;36.00;64.40;;;;;;5058402;28;20044;-67
2022/07/19 12:21:20;;;;;;;5.30;2.20;;;36.10;64.40;;;;;;5053499;28;20546;-63
2022/07/19 12:24:37;;;;;;;4.60;2.00;;;36.00;64.80;;;;;;5055365;28;20052;-62
2022/07/19 12:27:08;;;;;;;4.78;1.90;;;35.90;64.60;;;;;;5046151;28;20065;-63
2022/07/19 12:29:43;;;;;;;6.57;2.42;;;35.90;64.60;;;;;;5066771;28;20095;-63
2022/07/19 12:32:15;;;;;;;5.07;2.10;;;36.00;64.80;;;;;;5052548;28;20075;-63
2022/07/19 12:34:45;;;;;;;2.97;2.00;;;36.00;64.70;;;;;;5069731;28;20058;-62
2022/07/19 12:37:27;;;;;;;5.22;1.98;;;36.10;65.30;;;;;;5070379;28;20050;-63
2022/07/19 12:40:12;;;;;;;2.95;1.90;;;36.10;65.30;;;;;;5066626;28;20063;-62
2022/07/19 12:42:43;;;;;;;5.05;2.10;;;36.10;64.60;;;;;;5069666;28;20049;-62
2022/07/19 12:45:34;;;;;;;5.32;2.05;;;36.10;64.30;;;;;;5069673;28;20052;-62
2022/07/19 12:48:01;;;;;;;6.30;1.90;;;36.00;64.20;;;;;;5048117;28;20060;-62
2022/07/19 12:50:48;;;;;;;3.03;1.92;;;36.10;64.20;;;;;;5064949;28;20040;-63